Impacts METAR Board
IDs:

KCVG - Cincinnati Intl, KY, US

Updated at: 1900 UTC 23 Jun 2018
Potential Impact None Slight Moderate High
Time 23/07Z 23/08Z 23/09Z 23/10Z 23/11Z 23/12Z 23/13Z 23/14Z 23/15Z 23/16Z 23/17Z 23/18Z 23/19Z
Temp67 68 67 66 67 67 68 70 69 70 72 74 77
Dewpt65 64 64 64 64 64 65 65 65 66 65 65 65
Altim29.71 29.72 29.74 29.75 29.77 29.78 29.79 29.80 29.81 29.82 29.82 29.82 29.80
VIS8 9 8 10 6 2 7 10 1.75 6 10 10 10
CIG14 7 18 -- 14 6 17 17 18 24 24 20 25
CoverOVCOVCOVCSCTOVCOVCOVCOVCOVCOVCOVCBKNOVC
FltCatMVFRIFRMVFRVFRMVFRIFRMVFRMVFRIFRMVFRMVFRMVFRMVFR
WX--------BRBR-----RA BRBR------
WDir230210240230230260220220230260230240220
WSpd8 6 6 4 5 6 7 8 9 10 5 8 11
WGst-- -- -- -- -- -- -- -- -- -- -- -- 14
Raw hourly METARs
KCVG 230652Z 23008KT 8SM SCT008 OVC014 19/18 A2971 RMK AO2 CIG 006 36R SLP051 T01940183
KCVG 230752Z 21006KT 9SM BKN007 OVC013 20/18 A2972 RMK AO2 CIG 005V010 SLP054 T02000178
KCVG 230852Z 24006KT 8SM SCT008 BKN018 OVC023 19/18 A2974 RMK AO2 CIG 010 36R SLP062 T01940178 53009
KCVG 230952Z 23004KT 10SM FEW007 FEW018 SCT120 19/18 A2975 RMK AO2 SLP066 T01890178
KCVG 231103Z 23005KT 6SM BR BKN014 OVC020 19/18 A2977 RMK AO2 T01940178
KCVG 231152Z COR 26006KT 2SM BR BKN006 OVC013 19/18 A2978 RMK AO2 SFC VIS 4 RAB40RAE49 SLP077 P0000 60000 70011 T01940178 10200 20189 53015 $
KCVG 231252Z 22007KT 7SM FEW007 BKN017 OVC036 20/18 A2979 RMK AO2 RAB1155E07 SLP080 P0000 T02000183 $
KCVG 231352Z 22008KT 10SM SCT009 OVC017 21/18 A2980 RMK AO2 SLP083 T02110183 $
KCVG 231459Z 23009KT 1 3/4SM -RA BR SCT009 BKN018 OVC024 21/18 A2981 RMK AO2 RAB54 P0001 T02060183 $
KCVG 231552Z 26010KT 6SM BR SCT006 OVC024 21/19 A2982 RMK AO2 RAB1454E48 SLP089 P0006 T02110189 $
KCVG 231652Z 23005KT 10SM FEW013 BKN024 OVC050 22/18 A2982 RMK AO2 SLP090 T02220183 $
KCVG 231752Z 24008KT 10SM BKN020 BKN065 23/18 A2982 RMK AO2 SLP088 60006 T02330183 10239 20194 50004 $
KCVG 231852Z 22011G14KT 10SM BKN025 BKN065 OVC100 25/18 A2980 RMK AO2 SLP083 T02500183 $



Page loaded:  19:15 UTC  |   12:15 PM Pacific  |   01:15 PM Mountain  |   02:15 PM Central  |   03:15 PM Eastern

 

ADVISORIES

FORECASTS

FORECASTS

OBSERVATIONS

USER TOOLS

ABOUT US